createdAt,value
2023-04-26T00:01:18.610Z,7.68
2023-04-26T00:03:47.858Z,8.35
2023-04-26T00:06:17.583Z,8.63
2023-04-26T00:08:46.592Z,8.23
2023-04-26T00:11:15.588Z,7.55
2023-04-26T00:13:44.717Z,8.00
2023-04-26T00:16:15.213Z,8.18
2023-04-26T00:18:44.502Z,7.72
2023-04-26T00:21:14.064Z,7.38
2023-04-26T00:23:43.389Z,6.38
2023-04-26T00:26:12.332Z,6.93
2023-04-26T00:28:41.317Z,6.03
2023-04-26T00:31:15.625Z,8.13
2023-04-26T00:33:45.413Z,6.82
2023-04-26T00:36:16.587Z,6.60
2023-04-26T00:38:45.811Z,6.90
2023-04-26T00:41:15.441Z,6.55
2023-04-26T00:43:44.478Z,6.72
2023-04-26T00:46:13.848Z,6.47
2023-04-26T00:48:52.011Z,7.18
2023-04-26T00:51:21.426Z,6.55
2023-04-26T00:53:51.068Z,9.93
2023-04-26T00:56:20.512Z,5.70
2023-04-26T00:58:49.979Z,6.50
2023-04-26T01:01:28.100Z,5.60
2023-04-26T01:03:58.381Z,6.53
2023-04-26T01:06:29.945Z,5.50
2023-04-26T01:09:01.069Z,4.90
2023-04-26T01:11:30.626Z,5.13
2023-04-26T01:14:00.615Z,5.82
2023-04-26T01:16:30.914Z,5.68
2023-04-26T01:19:09.492Z,5.38
2023-04-26T01:21:43.126Z,5.22
2023-04-26T01:24:14.022Z,5.15
2023-04-26T01:26:49.868Z,4.10
2023-04-26T01:29:21.049Z,5.88
2023-04-26T01:31:50.980Z,4.60
2023-04-26T01:34:20.026Z,5.72
2023-04-26T01:36:49.182Z,8.98
2023-04-26T01:39:18.301Z,5.32
2023-04-26T01:41:47.384Z,5.85
2023-04-26T01:44:17.064Z,5.18
2023-04-26T01:46:46.350Z,5.57
2023-04-26T01:49:15.386Z,5.32
2023-04-26T01:51:46.338Z,5.32
2023-04-26T01:54:15.304Z,5.75
2023-04-26T01:56:44.352Z,5.28
2023-04-26T01:59:13.454Z,5.90
2023-04-26T02:01:47.623Z,5.30
2023-04-26T02:04:19.394Z,5.70
2023-04-26T02:06:48.415Z,5.15
2023-04-26T02:09:17.518Z,5.82
2023-04-26T02:11:46.736Z,5.55
2023-04-26T02:14:16.904Z,5.47
2023-04-26T02:16:46.032Z,5.68
2023-04-26T02:19:15.752Z,6.53
2023-04-26T02:21:56.278Z,5.57
2023-04-26T02:24:26.181Z,5.25
2023-04-26T02:27:02.122Z,5.20
2023-04-26T02:29:43.656Z,5.70
2023-04-26T02:32:22.567Z,5.90
2023-04-26T02:34:51.956Z,5.60
2023-04-26T02:37:23.354Z,5.45
2023-04-26T02:39:53.113Z,5.45
2023-04-26T02:42:22.238Z,5.25
2023-04-26T02:44:51.230Z,6.22
2023-04-26T02:47:23.135Z,5.35
2023-04-26T02:49:53.770Z,5.63
2023-04-26T02:52:26.306Z,6.25
2023-04-26T02:55:02.518Z,6.10
2023-04-26T02:57:32.569Z,6.05
2023-04-26T03:00:02.120Z,5.78
2023-04-26T03:02:31.235Z,6.30
2023-04-26T03:05:00.376Z,6.88
2023-04-26T03:07:29.457Z,6.82
2023-04-26T03:10:01.506Z,7.13
2023-04-26T03:12:30.549Z,7.05
2023-04-26T03:14:59.722Z,6.72
2023-04-26T03:17:28.692Z,6.93
2023-04-26T03:19:58.151Z,6.68
2023-04-26T03:22:28.449Z,8.43
2023-04-26T03:24:59.861Z,7.47
2023-04-26T03:27:28.905Z,8.50
2023-04-26T03:29:57.929Z,7.40
2023-04-26T03:32:27.074Z,8.10
2023-04-26T03:34:56.155Z,8.13
2023-04-26T03:37:27.922Z,7.95
2023-04-26T03:39:57.013Z,8.15
2023-04-26T03:42:26.069Z,8.60
2023-04-26T03:44:55.243Z,8.10
2023-04-26T03:47:24.247Z,8.10
2023-04-26T03:49:53.266Z,8.13
2023-04-26T03:52:22.312Z,8.35
2023-04-26T03:54:51.822Z,8.88
2023-04-26T03:57:20.940Z,8.98
2023-04-26T03:59:49.956Z,8.18
2023-04-26T04:02:18.990Z,8.63
2023-04-26T04:04:48.106Z,8.80
2023-04-26T04:07:17.799Z,8.23
2023-04-26T04:09:46.925Z,9.70
2023-04-26T04:12:16.059Z,9.90
2023-04-26T04:14:45.119Z,9.60
2023-04-26T04:17:14.139Z,9.63
2023-04-26T04:19:43.061Z,9.82
2023-04-26T04:22:12.323Z,10.07
2023-04-26T04:24:43.679Z,9.85
2023-04-26T04:27:15.739Z,11.55
2023-04-26T04:29:44.773Z,10.30
2023-04-26T04:32:16.349Z,9.52
2023-04-26T04:34:49.562Z,9.38
2023-04-26T04:37:19.427Z,11.13
2023-04-26T04:39:53.584Z,10.48
2023-04-26T04:42:32.462Z,9.45
2023-04-26T04:47:43.565Z,9.00
2023-04-26T04:50:19.009Z,9.00
2023-04-26T04:52:48.265Z,9.05
2023-04-26T04:55:17.922Z,9.20
2023-04-26T04:57:47.086Z,9.43
2023-04-26T05:00:20.397Z,10.00
2023-04-26T05:02:49.547Z,9.20
2023-04-26T05:05:18.693Z,9.93
2023-04-26T05:07:47.753Z,9.18
2023-04-26T05:10:18.119Z,9.88
2023-04-26T05:12:47.710Z,10.15
2023-04-26T05:15:16.850Z,9.65
2023-04-26T05:17:46.004Z,9.52
2023-04-26T05:20:16.045Z,10.23
2023-04-26T05:22:45.414Z,10.90
2023-04-26T05:25:15.202Z,9.18
2023-04-26T05:27:44.297Z,10.10
2023-04-26T05:30:13.791Z,10.50
2023-04-26T05:32:44.009Z,9.93
2023-04-26T05:35:13.084Z,10.15
2023-04-26T05:37:42.160Z,11.35
2023-04-26T05:40:13.543Z,10.70
2023-04-26T05:42:42.533Z,10.20
2023-04-26T05:45:12.307Z,10.45
2023-04-26T05:47:41.353Z,9.63
2023-04-26T05:50:11.027Z,10.05
2023-04-26T05:52:40.276Z,9.70
2023-04-26T05:55:10.237Z,9.98
2023-04-26T05:57:39.333Z,9.70
2023-04-26T06:00:11.065Z,10.45
2023-04-26T06:02:43.288Z,9.23
2023-04-26T06:05:12.520Z,9.70
2023-04-26T06:07:41.687Z,9.85
2023-04-26T06:10:11.765Z,11.07
2023-04-26T06:12:42.445Z,10.73
2023-04-26T06:15:12.292Z,11.57
2023-04-26T06:17:42.956Z,9.27
2023-04-26T06:20:12.806Z,9.30
2023-04-26T06:22:41.960Z,10.07
2023-04-26T06:25:11.646Z,10.18
2023-04-26T06:27:40.791Z,10.50
2023-04-26T06:30:10.412Z,11.48
2023-04-26T06:32:42.285Z,10.38
2023-04-26T06:35:12.154Z,10.00
2023-04-26T06:37:41.296Z,11.80
2023-04-26T06:40:10.914Z,11.80
2023-04-26T06:42:39.921Z,10.38
2023-04-26T06:45:09.738Z,10.70
2023-04-26T06:47:39.077Z,11.60
2023-04-26T06:50:08.963Z,11.68
2023-04-26T06:52:37.996Z,10.35
2023-04-26T06:55:08.241Z,11.80
2023-04-26T06:57:37.459Z,11.43
2023-04-26T07:00:10.924Z,10.98
2023-04-26T07:05:16.381Z,10.57
2023-04-26T07:07:45.491Z,10.50
2023-04-26T07:10:15.246Z,11.45
2023-04-26T07:12:44.411Z,11.10
2023-04-26T07:15:14.096Z,11.32
2023-04-26T07:17:43.319Z,11.63
2023-04-26T07:20:15.406Z,11.43
2023-04-26T07:22:47.910Z,11.63
2023-04-26T07:25:17.502Z,11.70
2023-04-26T07:27:46.474Z,11.48
2023-04-26T07:30:15.656Z,11.38
2023-04-26T07:32:44.650Z,11.13
2023-04-26T07:35:17.228Z,12.77
2023-04-26T07:37:56.136Z,13.00
2023-04-26T07:40:27.372Z,12.98
2023-04-26T07:42:56.650Z,12.32
2023-04-26T07:45:25.593Z,12.63
2023-04-26T07:47:54.944Z,12.55
2023-04-26T07:50:23.954Z,12.35
2023-04-26T07:52:52.911Z,11.50
2023-04-26T07:55:21.925Z,13.40
2023-04-26T07:57:50.973Z,11.25
2023-04-26T08:00:21.168Z,12.52
2023-04-26T08:02:50.354Z,11.75
2023-04-26T08:05:19.888Z,11.85
2023-04-26T08:07:49.168Z,12.57
2023-04-26T08:10:18.238Z,12.60
2023-04-26T08:12:47.551Z,12.60
2023-04-26T08:15:16.628Z,13.05
2023-04-26T08:17:45.771Z,12.35
2023-04-26T08:20:15.474Z,12.55
2023-04-26T08:22:44.479Z,11.70
2023-04-26T08:25:13.516Z,11.35
2023-04-26T08:27:42.732Z,11.80
2023-04-26T08:30:12.177Z,13.02
2023-04-26T08:32:42.157Z,12.68
2023-04-26T08:35:11.497Z,12.95
2023-04-26T08:37:41.056Z,13.35
2023-04-26T08:40:13.625Z,12.55
2023-04-26T08:42:45.582Z,12.80
2023-04-26T08:45:14.777Z,11.63
2023-04-26T08:47:50.758Z,12.20
2023-04-26T08:50:25.008Z,13.10
2023-04-26T08:52:54.940Z,11.88
2023-04-26T08:55:25.343Z,13.57
2023-04-26T08:57:54.535Z,12.70
2023-04-26T09:00:24.402Z,14.15
2023-04-26T09:02:55.001Z,13.85
2023-04-26T09:05:28.123Z,13.73
2023-04-26T09:08:06.409Z,14.52
2023-04-26T09:10:35.546Z,13.77
2023-04-26T09:13:04.551Z,14.95
2023-04-26T09:15:33.602Z,14.70
2023-04-26T09:18:22.882Z,13.73
2023-04-26T09:21:09.518Z,14.07
2023-04-26T09:23:58.263Z,14.98
2023-04-26T09:26:27.460Z,15.50
2023-04-26T09:29:13.801Z,13.80
2023-04-26T09:31:49.829Z,14.10
2023-04-26T09:34:19.444Z,13.95
2023-04-26T09:36:49.124Z,12.18
2023-04-26T09:39:35.851Z,12.77
2023-04-26T09:42:06.360Z,14.18
2023-04-26T09:44:37.301Z,12.68
2023-04-26T09:47:13.607Z,16.42
2023-04-26T09:49:52.642Z,13.70
2023-04-26T09:55:08.039Z,14.30
2023-04-26T09:57:46.062Z,14.48
2023-04-26T10:00:20.990Z,14.05
2023-04-26T10:02:56.888Z,14.20
2023-04-26T10:05:26.052Z,14.77
2023-04-26T10:07:55.287Z,14.38
2023-04-26T10:10:24.365Z,14.82
2023-04-26T10:12:53.328Z,15.60
2023-04-26T10:15:22.499Z,14.50
2023-04-26T10:17:52.213Z,13.88
2023-04-26T10:20:23.625Z,15.32
2023-04-26T10:23:02.809Z,15.98
2023-04-26T10:25:39.701Z,15.80
2023-04-26T10:28:09.258Z,15.20
2023-04-26T10:30:57.687Z,14.90
2023-04-26T10:33:29.840Z,15.77
2023-04-26T10:36:06.363Z,16.50
2023-04-26T10:38:37.178Z,15.00
2023-04-26T10:41:33.939Z,15.05
2023-04-26T10:44:42.266Z,14.38
2023-04-26T10:47:28.982Z,13.77
2023-04-26T10:50:05.806Z,15.02
2023-04-26T10:52:36.126Z,14.07
2023-04-26T10:55:07.365Z,14.15
2023-04-26T10:57:57.557Z,13.77
2023-04-26T11:00:32.784Z,13.88
2023-04-26T11:03:08.323Z,14.07
2023-04-26T11:05:49.614Z,14.40
2023-04-26T11:08:26.219Z,14.27
2023-04-26T11:11:17.784Z,14.98
2023-04-26T11:13:48.178Z,15.13
2023-04-26T11:16:18.565Z,13.93
2023-04-26T11:18:49.378Z,14.98
2023-04-26T11:21:20.720Z,15.68
2023-04-26T11:23:56.300Z,14.70
2023-04-26T11:26:33.126Z,15.15
2023-04-26T11:29:02.547Z,18.17
2023-04-26T11:31:32.544Z,18.85
2023-04-26T11:34:07.686Z,19.50
2023-04-26T11:36:39.981Z,17.77
2023-04-26T11:39:09.574Z,16.85
2023-04-26T11:41:38.582Z,18.63
2023-04-26T11:44:07.926Z,17.20
2023-04-26T11:46:37.262Z,18.45
2023-04-26T11:49:08.312Z,18.60
2023-04-26T11:51:37.924Z,17.90
2023-04-26T11:54:06.950Z,16.73
2023-04-26T11:56:36.123Z,18.33
2023-04-26T11:59:05.269Z,17.73
2023-04-26T12:01:34.455Z,15.73
2023-04-26T12:04:03.606Z,15.88
2023-04-26T12:06:42.834Z,16.98
2023-04-26T12:09:12.768Z,17.20
2023-04-26T12:11:42.486Z,21.45
2023-04-26T12:14:12.680Z,26.15
2023-04-26T12:16:43.828Z,29.50
2023-04-26T12:19:14.551Z,37.55
2023-04-26T12:21:45.020Z,39.78
2023-04-26T12:24:27.871Z,27.50
2023-04-26T12:26:57.090Z,25.35
2023-04-26T12:29:26.196Z,28.75
2023-04-26T12:31:55.309Z,32.03
2023-04-26T12:34:24.502Z,33.15
2023-04-26T12:36:53.499Z,30.33
2023-04-26T12:39:22.495Z,27.77
2023-04-26T12:41:51.466Z,21.10
2023-04-26T12:44:22.252Z,19.13
2023-04-26T12:46:52.594Z,17.80
2023-04-26T12:49:21.643Z,18.25
2023-04-26T12:51:50.589Z,17.50
2023-04-26T12:54:19.590Z,19.27
2023-04-26T12:56:49.741Z,18.30
2023-04-26T12:59:18.827Z,18.48
2023-04-26T13:01:47.910Z,17.83
2023-04-26T13:04:17.349Z,17.80
2023-04-26T13:06:46.581Z,17.02
2023-04-26T13:09:15.693Z,17.63
2023-04-26T13:11:44.719Z,17.15
2023-04-26T13:14:13.699Z,18.15
2023-04-26T13:16:44.994Z,16.75
2023-04-26T13:19:14.078Z,17.23
2023-04-26T13:21:43.306Z,18.42
2023-04-26T13:24:12.439Z,17.58
2023-04-26T13:26:41.421Z,16.75
2023-04-26T13:29:10.465Z,17.83
2023-04-26T13:31:41.028Z,18.35
2023-04-26T13:34:11.007Z,17.50
2023-04-26T13:36:40.258Z,17.58
2023-04-26T13:39:09.240Z,17.52
2023-04-26T13:41:38.499Z,17.00
2023-04-26T13:44:07.709Z,17.70
2023-04-26T13:46:36.827Z,18.42
2023-04-26T13:49:06.686Z,17.17
2023-04-26T13:51:36.056Z,18.63
2023-04-26T13:54:07.112Z,18.10
2023-04-26T13:56:36.481Z,20.30
2023-04-26T13:59:07.383Z,20.60
2023-04-26T14:01:40.363Z,21.30
2023-04-26T14:04:12.463Z,21.63
2023-04-26T14:06:41.869Z,21.80
2023-04-26T14:09:10.777Z,21.83
2023-04-26T14:11:39.780Z,21.70
2023-04-26T14:14:09.121Z,22.00
2023-04-26T14:16:38.246Z,21.17
2023-04-26T14:19:07.373Z,23.52
2023-04-26T14:21:36.764Z,22.38
2023-04-26T14:24:05.980Z,22.42
2023-04-26T14:26:35.013Z,21.73
2023-04-26T14:29:04.010Z,21.98
2023-04-26T14:31:33.833Z,21.77
2023-04-26T14:34:02.898Z,21.83
2023-04-26T14:36:33.217Z,19.75
2023-04-26T14:39:02.288Z,21.52
2023-04-26T14:41:31.525Z,20.27
2023-04-26T14:44:00.504Z,20.38
2023-04-26T14:46:29.535Z,21.08
2023-04-26T14:48:58.521Z,19.20
2023-04-26T14:51:28.547Z,20.42
2023-04-26T14:53:57.502Z,21.40
2023-04-26T14:56:26.439Z,21.70
2023-04-26T14:58:55.370Z,22.48
2023-04-26T15:01:24.346Z,20.95
2023-04-26T15:03:53.536Z,23.10
2023-04-26T15:06:22.695Z,21.25
2023-04-26T15:08:52.175Z,22.25
2023-04-26T15:11:21.227Z,21.77
2023-04-26T15:13:50.282Z,21.20
2023-04-26T15:16:19.353Z,20.58
2023-04-26T15:18:48.415Z,19.30
2023-04-26T15:21:21.071Z,19.17
2023-04-26T15:23:50.110Z,19.98
2023-04-26T15:26:19.095Z,20.05
2023-04-26T15:28:48.020Z,19.30
2023-04-26T15:31:17.537Z,19.50
2023-04-26T15:33:46.545Z,18.58
2023-04-26T15:36:16.965Z,19.60
2023-04-26T15:38:48.879Z,19.73
2023-04-26T15:41:17.937Z,20.58
2023-04-26T15:43:47.090Z,20.58
2023-04-26T15:46:16.851Z,21.95
2023-04-26T15:48:45.961Z,20.77
2023-04-26T15:51:14.951Z,23.55
2023-04-26T15:53:44.970Z,22.48
2023-04-26T15:56:20.757Z,22.98
2023-04-26T15:58:50.228Z,22.40
2023-04-26T16:01:19.838Z,20.85
2023-04-26T16:03:49.070Z,21.92
2023-04-26T16:06:18.511Z,21.45
2023-04-26T16:08:47.551Z,21.75
2023-04-26T16:11:16.797Z,23.42
2023-04-26T16:13:45.844Z,24.17
2023-04-26T16:16:14.982Z,21.83
2023-04-26T16:18:45.507Z,21.33
2023-04-26T16:21:14.518Z,22.55
2023-04-26T16:23:43.578Z,19.67
2023-04-26T16:26:13.162Z,20.90
2023-04-26T16:28:42.178Z,20.45
2023-04-26T16:31:11.408Z,20.73
2023-04-26T16:33:40.445Z,19.85
2023-04-26T16:36:10.759Z,20.15
2023-04-26T16:38:39.757Z,20.13
2023-04-26T16:41:08.837Z,20.25
2023-04-26T16:43:37.870Z,19.90
2023-04-26T16:46:08.691Z,19.52
2023-04-26T16:48:39.326Z,19.50
2023-04-26T16:51:09.047Z,21.38
2023-04-26T16:53:38.814Z,21.33
2023-04-26T16:56:08.408Z,24.15
2023-04-26T16:58:37.593Z,26.58
2023-04-26T17:01:07.144Z,30.90
2023-04-26T17:03:36.286Z,26.67
2023-04-26T17:06:07.807Z,22.83
2023-04-26T17:08:37.181Z,20.50
2023-04-26T17:11:06.475Z,23.08
2023-04-26T17:13:35.458Z,19.98
2023-04-26T17:16:06.793Z,21.27
2023-04-26T17:18:35.795Z,21.42
2023-04-26T17:21:05.959Z,21.35
2023-04-26T17:23:35.093Z,20.63
2023-04-26T17:26:05.517Z,21.23
2023-04-26T17:28:34.730Z,20.75
2023-04-26T17:31:04.946Z,21.40
2023-04-26T17:33:33.944Z,19.90
2023-04-26T17:36:03.895Z,20.60
2023-04-26T17:38:33.073Z,19.92
2023-04-26T17:41:02.382Z,18.75
2023-04-26T17:43:31.404Z,19.73
2023-04-26T17:46:00.376Z,20.85
2023-04-26T17:48:30.489Z,20.20
2023-04-26T17:50:59.538Z,20.42
2023-04-26T17:53:28.618Z,18.95
2023-04-26T17:55:57.802Z,19.55
2023-04-26T17:58:26.796Z,19.50
2023-04-26T18:00:55.804Z,20.58
2023-04-26T18:03:25.295Z,18.95
2023-04-26T18:05:54.531Z,20.30
2023-04-26T18:08:23.553Z,20.83
2023-04-26T18:10:54.988Z,20.27
2023-04-26T18:13:24.035Z,20.13
2023-04-26T18:15:53.024Z,19.63
2023-04-26T18:18:22.016Z,21.02
2023-04-26T18:20:51.167Z,21.20
2023-04-26T18:23:20.457Z,19.88
2023-04-26T18:25:51.593Z,19.98
2023-04-26T18:28:20.588Z,20.92
2023-04-26T18:30:49.586Z,20.05
2023-04-26T18:33:18.776Z,19.52
2023-04-26T18:35:50.828Z,20.30
2023-04-26T18:38:20.269Z,18.35
2023-04-26T18:40:51.012Z,18.88
2023-04-26T18:43:20.338Z,19.35
2023-04-26T18:45:49.430Z,19.40
2023-04-26T18:48:18.414Z,18.20
2023-04-26T18:50:57.741Z,18.38
2023-04-26T18:53:26.752Z,16.33
2023-04-26T18:55:57.466Z,15.90
2023-04-26T18:58:26.700Z,17.08
2023-04-26T19:00:55.687Z,17.10
2023-04-26T19:03:25.127Z,14.98
2023-04-26T19:05:54.526Z,15.45
2023-04-26T19:08:23.494Z,16.48
2023-04-26T19:10:52.509Z,15.75
2023-04-26T19:13:21.771Z,15.80
2023-04-26T19:15:50.928Z,16.15
2023-04-26T19:18:19.942Z,16.20
2023-04-26T19:20:49.890Z,17.13
2023-04-26T19:23:19.001Z,16.45
2023-04-26T19:25:48.253Z,15.98
2023-04-26T19:28:17.317Z,15.85
2023-04-26T19:30:46.216Z,15.48
2023-04-26T19:33:15.179Z,14.65
2023-04-26T19:35:44.120Z,14.07
2023-04-26T19:38:13.560Z,14.38
2023-04-26T19:40:43.853Z,15.75
2023-04-26T19:43:14.075Z,14.63
2023-04-26T19:45:43.123Z,13.90
2023-04-26T19:48:12.324Z,14.13
2023-04-26T19:50:45.796Z,13.18
2023-04-26T19:53:16.827Z,12.02
2023-04-26T19:55:45.819Z,12.40
2023-04-26T19:58:14.950Z,11.60
2023-04-26T20:00:44.916Z,11.82
2023-04-26T20:03:14.130Z,12.75
2023-04-26T20:05:43.169Z,11.52
2023-04-26T20:08:12.278Z,11.98
2023-04-26T20:10:42.823Z,12.40
2023-04-26T20:13:11.879Z,11.65
2023-04-26T20:15:40.869Z,10.85
2023-04-26T20:18:09.801Z,10.25
2023-04-26T20:20:38.979Z,12.35
2023-04-26T20:23:08.962Z,10.85
2023-04-26T20:25:37.938Z,10.30
2023-04-26T20:28:07.310Z,10.98
2023-04-26T20:30:36.387Z,9.82
2023-04-26T20:33:05.447Z,10.10
2023-04-26T20:35:34.519Z,9.85
2023-04-26T20:38:03.712Z,9.77
2023-04-26T20:40:33.019Z,9.55
2023-04-26T20:43:02.091Z,8.73
2023-04-26T20:45:31.089Z,9.38
2023-04-26T20:48:00.160Z,8.65
2023-04-26T20:50:29.478Z,9.60
2023-04-26T20:52:58.645Z,8.90
2023-04-26T20:55:28.070Z,8.55
2023-04-26T20:57:57.101Z,8.52
2023-04-26T21:00:26.189Z,8.43
2023-04-26T21:02:55.258Z,8.50
2023-04-26T21:05:25.306Z,9.20
2023-04-26T21:07:54.362Z,8.10
2023-04-26T21:10:23.312Z,7.63
2023-04-26T21:12:52.548Z,7.75
2023-04-26T21:15:22.063Z,7.70
2023-04-26T21:17:51.132Z,7.70
2023-04-26T21:20:20.295Z,7.20
2023-04-26T21:22:49.566Z,7.88
2023-04-26T21:25:20.829Z,7.82
2023-04-26T21:27:52.028Z,6.43
2023-04-26T21:30:21.220Z,6.90
2023-04-26T21:32:50.274Z,6.65
2023-04-26T21:35:19.262Z,5.85
2023-04-26T21:37:48.561Z,6.47
2023-04-26T21:40:17.713Z,6.82
2023-04-26T21:43:01.459Z,7.32
2023-04-26T21:45:33.715Z,7.47
2023-04-26T21:48:02.757Z,6.20
2023-04-26T21:50:31.919Z,7.00
2023-04-26T21:53:00.965Z,7.47
2023-04-26T21:55:29.952Z,7.18
2023-04-26T21:57:59.369Z,6.53
2023-04-26T22:00:29.103Z,6.63
2023-04-26T22:05:41.116Z,6.57
2023-04-26T22:08:10.160Z,7.32
2023-04-26T22:10:39.190Z,6.47
2023-04-26T22:13:08.172Z,6.93
2023-04-26T22:15:37.654Z,6.13
2023-04-26T22:18:06.951Z,6.70
2023-04-26T22:20:37.139Z,6.57
2023-04-26T22:23:06.207Z,6.90
2023-04-26T22:25:35.361Z,6.40
2023-04-26T22:28:04.524Z,6.28
2023-04-26T22:30:33.835Z,6.72
2023-04-26T22:33:03.003Z,6.25
2023-04-26T22:35:32.216Z,6.35
2023-04-26T22:38:01.206Z,6.05
2023-04-26T22:40:30.197Z,6.53
2023-04-26T22:42:59.250Z,6.38
2023-04-26T22:45:28.282Z,6.28
2023-04-26T22:47:57.623Z,6.20
2023-04-26T22:50:26.851Z,6.68
2023-04-26T22:52:56.067Z,6.72
2023-04-26T22:55:25.149Z,6.45
2023-04-26T22:57:54.191Z,5.70
2023-04-26T23:00:25.730Z,6.13
2023-04-26T23:02:55.007Z,6.38
2023-04-26T23:05:24.016Z,5.95
2023-04-26T23:07:53.038Z,6.60
2023-04-26T23:10:22.315Z,6.85
2023-04-26T23:12:52.032Z,6.50
2023-04-26T23:15:21.074Z,6.13
2023-04-26T23:17:50.418Z,5.85
2023-04-26T23:20:19.562Z,5.40
2023-04-26T23:22:48.759Z,6.35
2023-04-26T23:25:17.831Z,6.97
2023-04-26T23:27:47.179Z,5.70
2023-04-26T23:30:16.739Z,6.28
2023-04-26T23:32:45.855Z,6.57
2023-04-26T23:35:14.897Z,5.80
2023-04-26T23:37:44.035Z,6.20
2023-04-26T23:40:13.480Z,6.30
2023-04-26T23:42:42.774Z,6.00
2023-04-26T23:45:12.784Z,6.25
2023-04-26T23:47:41.916Z,6.00
2023-04-26T23:50:11.404Z,10.15
2023-04-26T23:52:40.654Z,7.40
2023-04-26T23:55:10.607Z,7.32
2023-04-26T23:57:39.750Z,5.68
